sensor_id;sensor_type;location;lat;lon;timestamp;temperature;humidity
11122;DHT22;5615;49.304;10.576;2022-08-01T00:02:13;19.70;99.90
11122;DHT22;5615;49.304;10.576;2022-08-01T00:04:40;19.70;99.90
11122;DHT22;5615;49.304;10.576;2022-08-01T00:07:06;19.70;99.90
11122;DHT22;5615;49.304;10.576;2022-08-01T00:09:33;19.70;99.90
11122;DHT22;5615;49.304;10.576;2022-08-01T00:12:00;19.70;99.90
11122;DHT22;5615;49.304;10.576;2022-08-01T00:14:27;19.70;99.90
11122;DHT22;5615;49.304;10.576;2022-08-01T00:16:54;19.70;99.90
11122;DHT22;5615;49.304;10.576;2022-08-01T00:19:22;19.60;99.90
11122;DHT22;5615;49.304;10.576;2022-08-01T00:21:48;19.60;99.90
11122;DHT22;5615;49.304;10.576;2022-08-01T00:24:15;19.60;99.90
11122;DHT22;5615;49.304;10.576;2022-08-01T00:26:42;19.60;99.90
11122;DHT22;5615;49.304;10.576;2022-08-01T00:29:08;19.50;99.90
11122;DHT22;5615;49.304;10.576;2022-08-01T00:31:35;19.50;99.90
11122;DHT22;5615;49.304;10.576;2022-08-01T00:34:02;19.40;99.90
11122;DHT22;5615;49.304;10.576;2022-08-01T00:36:30;19.30;99.90
11122;DHT22;5615;49.304;10.576;2022-08-01T00:38:56;19.30;99.90
11122;DHT22;5615;49.304;10.576;2022-08-01T00:41:23;19.30;99.90
11122;DHT22;5615;49.304;10.576;2022-08-01T00:43:50;19.20;99.90
11122;DHT22;5615;49.304;10.576;2022-08-01T00:46:16;19.20;99.90
11122;DHT22;5615;49.304;10.576;2022-08-01T00:48:43;19.20;99.90
11122;DHT22;5615;49.304;10.576;2022-08-01T00:51:10;19.10;99.90
11122;DHT22;5615;49.304;10.576;2022-08-01T00:53:39;19.10;99.90
11122;DHT22;5615;49.304;10.576;2022-08-01T00:56:05;19.10;99.90
11122;DHT22;5615;49.304;10.576;2022-08-01T00:58:33;19.10;99.90
11122;DHT22;5615;49.304;10.576;2022-08-01T01:01:00;19.10;99.90
11122;DHT22;5615;49.304;10.576;2022-08-01T01:03:27;19.10;99.90
11122;DHT22;5615;49.304;10.576;2022-08-01T01:06:02;19.10;99.90
11122;DHT22;5615;49.304;10.576;2022-08-01T01:08:35;19.10;99.90
11122;DHT22;5615;49.304;10.576;2022-08-01T01:11:10;19.10;99.90
11122;DHT22;5615;49.304;10.576;2022-08-01T01:13:41;19.10;99.90
11122;DHT22;5615;49.304;10.576;2022-08-01T01:16:12;19.10;99.90
11122;DHT22;5615;49.304;10.576;2022-08-01T01:18:45;19.20;99.90
11122;DHT22;5615;49.304;10.576;2022-08-01T01:24:19;19.00;99.90
11122;DHT22;5615;49.304;10.576;2022-08-01T01:26:52;19.00;99.90
11122;DHT22;5615;49.304;10.576;2022-08-01T01:29:27;19.00;99.90
11122;DHT22;5615;49.304;10.576;2022-08-01T01:31:57;19.00;99.90
11122;DHT22;5615;49.304;10.576;2022-08-01T01:34:28;19.00;99.90
11122;DHT22;5615;49.304;10.576;2022-08-01T01:36:56;18.90;99.90
11122;DHT22;5615;49.304;10.576;2022-08-01T01:39:26;18.90;99.90
11122;DHT22;5615;49.304;10.576;2022-08-01T01:41:57;18.80;99.90
11122;DHT22;5615;49.304;10.576;2022-08-01T01:44:25;18.80;99.90
11122;DHT22;5615;49.304;10.576;2022-08-01T01:46:53;18.80;99.90
11122;DHT22;5615;49.304;10.576;2022-08-01T01:49:21;18.70;99.90
11122;DHT22;5615;49.304;10.576;2022-08-01T01:51:50;18.70;99.90
11122;DHT22;5615;49.304;10.576;2022-08-01T01:54:18;18.70;99.90
11122;DHT22;5615;49.304;10.576;2022-08-01T01:56:46;18.70;99.90
11122;DHT22;5615;49.304;10.576;2022-08-01T01:59:19;18.70;99.90
11122;DHT22;5615;49.304;10.576;2022-08-01T02:01:48;18.60;99.90
11122;DHT22;5615;49.304;10.576;2022-08-01T02:04:16;18.60;99.90
11122;DHT22;5615;49.304;10.576;2022-08-01T02:06:45;18.60;99.90
11122;DHT22;5615;49.304;10.576;2022-08-01T02:09:14;18.50;99.90
11122;DHT22;5615;49.304;10.576;2022-08-01T02:11:43;18.50;99.90
11122;DHT22;5615;49.304;10.576;2022-08-01T02:14:11;18.50;99.90
11122;DHT22;5615;49.304;10.576;2022-08-01T02:16:41;18.50;99.90
11122;DHT22;5615;49.304;10.576;2022-08-01T02:19:09;18.50;99.90
11122;DHT22;5615;49.304;10.576;2022-08-01T02:21:39;18.50;99.90
11122;DHT22;5615;49.304;10.576;2022-08-01T02:24:12;18.40;99.90
11122;DHT22;5615;49.304;10.576;2022-08-01T02:26:44;18.40;99.90
11122;DHT22;5615;49.304;10.576;2022-08-01T02:29:17;18.30;99.90
11122;DHT22;5615;49.304;10.576;2022-08-01T02:31:46;18.30;99.90
11122;DHT22;5615;49.304;10.576;2022-08-01T02:34:17;18.40;99.90
11122;DHT22;5615;49.304;10.576;2022-08-01T02:36:46;18.40;99.90
11122;DHT22;5615;49.304;10.576;2022-08-01T02:39:17;18.40;99.90
11122;DHT22;5615;49.304;10.576;2022-08-01T02:41:48;18.30;99.90
11122;DHT22;5615;49.304;10.576;2022-08-01T02:44:21;18.30;99.90
11122;DHT22;5615;49.304;10.576;2022-08-01T02:46:51;18.20;99.90
11122;DHT22;5615;49.304;10.576;2022-08-01T02:49:20;18.20;99.90
11122;DHT22;5615;49.304;10.576;2022-08-01T02:51:49;18.20;99.90
11122;DHT22;5615;49.304;10.576;2022-08-01T02:54:18;18.30;99.90
11122;DHT22;5615;49.304;10.576;2022-08-01T02:56:47;18.30;99.90
11122;DHT22;5615;49.304;10.576;2022-08-01T02:59:17;18.20;99.90
11122;DHT22;5615;49.304;10.576;2022-08-01T03:01:46;18.20;99.90
11122;DHT22;5615;49.304;10.576;2022-08-01T03:04:14;18.20;99.90
11122;DHT22;5615;49.304;10.576;2022-08-01T03:06:45;18.10;99.90
11122;DHT22;5615;49.304;10.576;2022-08-01T03:09:14;18.10;99.90
11122;DHT22;5615;49.304;10.576;2022-08-01T03:11:42;18.00;99.90
11122;DHT22;5615;49.304;10.576;2022-08-01T03:14:10;17.90;99.90
11122;DHT22;5615;49.304;10.576;2022-08-01T03:16:39;17.90;99.90
11122;DHT22;5615;49.304;10.576;2022-08-01T03:19:08;17.80;99.90
11122;DHT22;5615;49.304;10.576;2022-08-01T03:21:37;17.80;99.90
11122;DHT22;5615;49.304;10.576;2022-08-01T03:24:07;17.80;99.90
11122;DHT22;5615;49.304;10.576;2022-08-01T03:26:36;17.80;99.90
11122;DHT22;5615;49.304;10.576;2022-08-01T03:29:05;17.80;99.90
11122;DHT22;5615;49.304;10.576;2022-08-01T03:31:34;17.90;99.90
11122;DHT22;5615;49.304;10.576;2022-08-01T03:34:01;17.80;99.90
11122;DHT22;5615;49.304;10.576;2022-08-01T03:36:30;17.70;99.90
11122;DHT22;5615;49.304;10.576;2022-08-01T03:39:01;17.70;99.90
11122;DHT22;5615;49.304;10.576;2022-08-01T03:41:34;17.60;99.90
11122;DHT22;5615;49.304;10.576;2022-08-01T03:44:08;17.60;99.90
11122;DHT22;5615;49.304;10.576;2022-08-01T03:46:40;17.60;99.90
11122;DHT22;5615;49.304;10.576;2022-08-01T03:49:13;17.50;99.90
11122;DHT22;5615;49.304;10.576;2022-08-01T03:51:41;17.50;99.90
11122;DHT22;5615;49.304;10.576;2022-08-01T03:54:08;17.50;99.90
11122;DHT22;5615;49.304;10.576;2022-08-01T03:56:38;17.50;99.90
11122;DHT22;5615;49.304;10.576;2022-08-01T03:59:06;17.70;99.90
11122;DHT22;5615;49.304;10.576;2022-08-01T04:01:33;17.70;99.90
11122;DHT22;5615;49.304;10.576;2022-08-01T04:04:01;17.70;99.90
11122;DHT22;5615;49.304;10.576;2022-08-01T04:06:30;17.70;99.90
11122;DHT22;5615;49.304;10.576;2022-08-01T04:08:57;17.80;99.90
11122;DHT22;5615;49.304;10.576;2022-08-01T04:11:24;17.80;99.90
11122;DHT22;5615;49.304;10.576;2022-08-01T04:13:54;17.80;99.90
11122;DHT22;5615;49.304;10.576;2022-08-01T04:16:21;17.90;99.90
11122;DHT22;5615;49.304;10.576;2022-08-01T04:18:48;17.90;99.90
11122;DHT22;5615;49.304;10.576;2022-08-01T04:21:17;17.90;99.90
11122;DHT22;5615;49.304;10.576;2022-08-01T04:23:44;17.90;99.90
11122;DHT22;5615;49.304;10.576;2022-08-01T04:26:13;17.90;99.90
11122;DHT22;5615;49.304;10.576;2022-08-01T04:28:43;18.00;99.90
11122;DHT22;5615;49.304;10.576;2022-08-01T04:31:12;18.00;99.90
11122;DHT22;5615;49.304;10.576;2022-08-01T04:33:43;18.00;99.90
11122;DHT22;5615;49.304;10.576;2022-08-01T04:36:11;18.00;99.90
11122;DHT22;5615;49.304;10.576;2022-08-01T04:38:40;18.00;99.90
11122;DHT22;5615;49.304;10.576;2022-08-01T04:41:11;18.00;99.90
11122;DHT22;5615;49.304;10.576;2022-08-01T04:43:39;18.00;99.90
11122;DHT22;5615;49.304;10.576;2022-08-01T04:46:07;18.00;99.90
11122;DHT22;5615;49.304;10.576;2022-08-01T04:48:37;18.10;99.90
11122;DHT22;5615;49.304;10.576;2022-08-01T04:51:04;18.20;99.90
11122;DHT22;5615;49.304;10.576;2022-08-01T04:53:31;18.30;99.90
11122;DHT22;5615;49.304;10.576;2022-08-01T04:55:58;18.40;99.90
11122;DHT22;5615;49.304;10.576;2022-08-01T04:58:24;18.40;99.90
11122;DHT22;5615;49.304;10.576;2022-08-01T05:00:51;18.40;99.90
11122;DHT22;5615;49.304;10.576;2022-08-01T05:03:18;18.50;99.90
11122;DHT22;5615;49.304;10.576;2022-08-01T05:05:46;18.60;99.90
11122;DHT22;5615;49.304;10.576;2022-08-01T05:08:12;18.70;99.90
11122;DHT22;5615;49.304;10.576;2022-08-01T05:10:39;18.80;99.90
11122;DHT22;5615;49.304;10.576;2022-08-01T05:13:06;18.80;99.90
11122;DHT22;5615;49.304;10.576;2022-08-01T05:15:34;18.90;99.90
11122;DHT22;5615;49.304;10.576;2022-08-01T05:18:02;18.90;99.90
11122;DHT22;5615;49.304;10.576;2022-08-01T05:20:28;18.90;99.90
11122;DHT22;5615;49.304;10.576;2022-08-01T05:22:56;18.90;99.90
11122;DHT22;5615;49.304;10.576;2022-08-01T05:25:23;19.00;99.90
11122;DHT22;5615;49.304;10.576;2022-08-01T05:27:50;19.00;99.90
11122;DHT22;5615;49.304;10.576;2022-08-01T05:30:16;19.10;99.90
11122;DHT22;5615;49.304;10.576;2022-08-01T05:32:43;19.20;99.90
11122;DHT22;5615;49.304;10.576;2022-08-01T05:35:10;19.30;99.90
11122;DHT22;5615;49.304;10.576;2022-08-01T05:37:36;19.30;99.90
11122;DHT22;5615;49.304;10.576;2022-08-01T05:40:06;19.40;99.90
11122;DHT22;5615;49.304;10.576;2022-08-01T05:42:32;19.50;99.90
11122;DHT22;5615;49.304;10.576;2022-08-01T05:44:59;19.50;99.90
11122;DHT22;5615;49.304;10.576;2022-08-01T05:47:26;19.50;99.90
11122;DHT22;5615;49.304;10.576;2022-08-01T05:49:52;19.40;99.90
11122;DHT22;5615;49.304;10.576;2022-08-01T05:52:19;19.40;99.90
11122;DHT22;5615;49.304;10.576;2022-08-01T05:54:46;19.50;99.90
11122;DHT22;5615;49.304;10.576;2022-08-01T05:57:14;19.50;99.90
11122;DHT22;5615;49.304;10.576;2022-08-01T05:59:41;19.60;99.90
11122;DHT22;5615;49.304;10.576;2022-08-01T06:02:07;19.60;99.90
11122;DHT22;5615;49.304;10.576;2022-08-01T06:04:34;19.70;99.90
11122;DHT22;5615;49.304;10.576;2022-08-01T06:07:01;19.70;99.90
11122;DHT22;5615;49.304;10.576;2022-08-01T06:09:27;19.80;99.90
11122;DHT22;5615;49.304;10.576;2022-08-01T06:11:55;19.90;99.90
11122;DHT22;5615;49.304;10.576;2022-08-01T06:14:24;20.00;99.90
11122;DHT22;5615;49.304;10.576;2022-08-01T06:16:51;20.10;99.90
11122;DHT22;5615;49.304;10.576;2022-08-01T06:19:17;20.30;99.90
11122;DHT22;5615;49.304;10.576;2022-08-01T06:21:44;20.50;99.90
11122;DHT22;5615;49.304;10.576;2022-08-01T06:24:11;20.50;99.90
11122;DHT22;5615;49.304;10.576;2022-08-01T06:26:37;20.60;99.90
11122;DHT22;5615;49.304;10.576;2022-08-01T06:29:04;20.90;99.90
11122;DHT22;5615;49.304;10.576;2022-08-01T06:31:32;21.00;99.90
11122;DHT22;5615;49.304;10.576;2022-08-01T06:33:58;20.90;99.90
11122;DHT22;5615;49.304;10.576;2022-08-01T06:36:25;21.10;99.90
11122;DHT22;5615;49.304;10.576;2022-08-01T06:38:52;21.10;99.90
11122;DHT22;5615;49.304;10.576;2022-08-01T06:41:19;21.20;99.90
11122;DHT22;5615;49.304;10.576;2022-08-01T06:43:45;21.20;99.90
11122;DHT22;5615;49.304;10.576;2022-08-01T06:46:12;21.30;99.90
11122;DHT22;5615;49.304;10.576;2022-08-01T06:48:40;21.50;99.90
11122;DHT22;5615;49.304;10.576;2022-08-01T06:51:07;21.70;99.90
11122;DHT22;5615;49.304;10.576;2022-08-01T06:53:35;21.70;99.90
11122;DHT22;5615;49.304;10.576;2022-08-01T06:56:02;21.60;99.90
11122;DHT22;5615;49.304;10.576;2022-08-01T06:58:29;21.60;99.90
11122;DHT22;5615;49.304;10.576;2022-08-01T07:00:56;21.50;99.90
11122;DHT22;5615;49.304;10.576;2022-08-01T07:03:22;21.70;99.90
11122;DHT22;5615;49.304;10.576;2022-08-01T07:05:50;22.00;99.90
11122;DHT22;5615;49.304;10.576;2022-08-01T07:08:17;21.80;99.90
11122;DHT22;5615;49.304;10.576;2022-08-01T07:10:44;21.80;99.90
11122;DHT22;5615;49.304;10.576;2022-08-01T07:13:10;22.00;99.90
11122;DHT22;5615;49.304;10.576;2022-08-01T07:15:37;22.30;99.90
11122;DHT22;5615;49.304;10.576;2022-08-01T07:18:04;22.40;99.90
11122;DHT22;5615;49.304;10.576;2022-08-01T07:20:30;22.40;99.90
11122;DHT22;5615;49.304;10.576;2022-08-01T07:22:58;22.70;99.90
11122;DHT22;5615;49.304;10.576;2022-08-01T07:25:25;23.00;99.90
11122;DHT22;5615;49.304;10.576;2022-08-01T07:27:52;22.70;99.90
11122;DHT22;5615;49.304;10.576;2022-08-01T07:30:18;22.90;99.90
11122;DHT22;5615;49.304;10.576;2022-08-01T07:32:45;23.00;99.90
11122;DHT22;5615;49.304;10.576;2022-08-01T07:35:12;23.10;99.90
11122;DHT22;5615;49.304;10.576;2022-08-01T07:37:38;23.20;99.90
11122;DHT22;5615;49.304;10.576;2022-08-01T07:40:08;23.20;99.90
11122;DHT22;5615;49.304;10.576;2022-08-01T07:42:34;23.40;99.90
11122;DHT22;5615;49.304;10.576;2022-08-01T07:45:01;23.90;99.90
11122;DHT22;5615;49.304;10.576;2022-08-01T07:47:28;23.40;99.90
11122;DHT22;5615;49.304;10.576;2022-08-01T07:49:59;23.50;99.90
11122;DHT22;5615;49.304;10.576;2022-08-01T07:52:26;23.60;99.90
11122;DHT22;5615;49.304;10.576;2022-08-01T07:54:53;23.60;99.90
11122;DHT22;5615;49.304;10.576;2022-08-01T07:57:21;23.90;99.90
11122;DHT22;5615;49.304;10.576;2022-08-01T07:59:48;24.50;99.90
11122;DHT22;5615;49.304;10.576;2022-08-01T08:02:15;24.70;99.90
11122;DHT22;5615;49.304;10.576;2022-08-01T08:04:41;24.10;99.90
11122;DHT22;5615;49.304;10.576;2022-08-01T08:07:08;23.70;99.90
11122;DHT22;5615;49.304;10.576;2022-08-01T08:09:35;23.70;99.90
11122;DHT22;5615;49.304;10.576;2022-08-01T08:12:02;23.60;99.90
11122;DHT22;5615;49.304;10.576;2022-08-01T08:14:30;23.30;99.90
11122;DHT22;5615;49.304;10.576;2022-08-01T08:16:56;23.30;99.90
11122;DHT22;5615;49.304;10.576;2022-08-01T08:19:23;23.50;99.90
11122;DHT22;5615;49.304;10.576;2022-08-01T08:21:50;24.00;99.90
11122;DHT22;5615;49.304;10.576;2022-08-01T08:24:17;24.20;99.90
11122;DHT22;5615;49.304;10.576;2022-08-01T08:26:46;23.90;99.90
11122;DHT22;5615;49.304;10.576;2022-08-01T08:29:13;24.00;99.90
11122;DHT22;5615;49.304;10.576;2022-08-01T08:31:41;24.50;99.90
11122;DHT22;5615;49.304;10.576;2022-08-01T08:34:08;24.80;99.90
11122;DHT22;5615;49.304;10.576;2022-08-01T08:36:35;24.40;99.90
11122;DHT22;5615;49.304;10.576;2022-08-01T08:39:03;24.30;99.90
11122;DHT22;5615;49.304;10.576;2022-08-01T08:41:30;24.50;99.90
11122;DHT22;5615;49.304;10.576;2022-08-01T08:43:57;24.60;99.90
11122;DHT22;5615;49.304;10.576;2022-08-01T08:46:25;24.20;99.90
11122;DHT22;5615;49.304;10.576;2022-08-01T08:48:54;24.40;99.90
11122;DHT22;5615;49.304;10.576;2022-08-01T08:51:23;24.50;99.90
11122;DHT22;5615;49.304;10.576;2022-08-01T08:53:54;24.30;99.90
11122;DHT22;5615;49.304;10.576;2022-08-01T08:56:23;24.10;99.90
11122;DHT22;5615;49.304;10.576;2022-08-01T08:58:51;24.10;99.90
11122;DHT22;5615;49.304;10.576;2022-08-01T09:01:18;24.70;99.90
11122;DHT22;5615;49.304;10.576;2022-08-01T09:03:45;24.30;99.90
11122;DHT22;5615;49.304;10.576;2022-08-01T09:06:13;24.30;99.90
11122;DHT22;5615;49.304;10.576;2022-08-01T09:08:40;24.20;99.90
11122;DHT22;5615;49.304;10.576;2022-08-01T09:11:07;24.20;99.90
11122;DHT22;5615;49.304;10.576;2022-08-01T09:13:33;24.30;99.90
11122;DHT22;5615;49.304;10.576;2022-08-01T09:16:00;24.30;99.90
11122;DHT22;5615;49.304;10.576;2022-08-01T09:18:30;24.90;99.90
11122;DHT22;5615;49.304;10.576;2022-08-01T09:21:11;25.10;99.90
11122;DHT22;5615;49.304;10.576;2022-08-01T09:23:43;25.30;99.90
11122;DHT22;5615;49.304;10.576;2022-08-01T09:26:12;25.40;99.90
11122;DHT22;5615;49.304;10.576;2022-08-01T09:28:40;24.80;99.90
11122;DHT22;5615;49.304;10.576;2022-08-01T09:31:09;24.80;99.90
11122;DHT22;5615;49.304;10.576;2022-08-01T09:33:52;24.80;99.90
11122;DHT22;5615;49.304;10.576;2022-08-01T09:36:20;24.50;99.90
11122;DHT22;5615;49.304;10.576;2022-08-01T09:38:50;25.00;99.90
11122;DHT22;5615;49.304;10.576;2022-08-01T09:41:17;25.50;99.90
11122;DHT22;5615;49.304;10.576;2022-08-01T09:43:54;25.70;99.90
11122;DHT22;5615;49.304;10.576;2022-08-01T09:46:21;26.30;99.90
11122;DHT22;5615;49.304;10.576;2022-08-01T09:48:58;26.50;99.90
11122;DHT22;5615;49.304;10.576;2022-08-01T09:51:30;26.90;99.90
11122;DHT22;5615;49.304;10.576;2022-08-01T09:53:59;26.90;99.90
11122;DHT22;5615;49.304;10.576;2022-08-01T09:56:26;26.60;99.90
11122;DHT22;5615;49.304;10.576;2022-08-01T09:58:55;26.20;99.90
11122;DHT22;5615;49.304;10.576;2022-08-01T10:01:23;25.80;99.90
11122;DHT22;5615;49.304;10.576;2022-08-01T10:04:05;25.40;99.90
11122;DHT22;5615;49.304;10.576;2022-08-01T10:06:31;25.20;99.90
11122;DHT22;5615;49.304;10.576;2022-08-01T10:08:59;25.40;99.90
11122;DHT22;5615;49.304;10.576;2022-08-01T10:11:26;26.00;99.90
11122;DHT22;5615;49.304;10.576;2022-08-01T10:13:55;26.30;99.90
11122;DHT22;5615;49.304;10.576;2022-08-01T10:16:23;26.80;99.90
11122;DHT22;5615;49.304;10.576;2022-08-01T10:18:51;26.70;99.90
11122;DHT22;5615;49.304;10.576;2022-08-01T10:21:18;26.50;99.90
11122;DHT22;5615;49.304;10.576;2022-08-01T10:23:46;27.60;99.90
11122;DHT22;5615;49.304;10.576;2022-08-01T10:26:16;27.00;99.90
11122;DHT22;5615;49.304;10.576;2022-08-01T10:28:44;27.00;99.90
11122;DHT22;5615;49.304;10.576;2022-08-01T10:31:14;26.40;99.90
11122;DHT22;5615;49.304;10.576;2022-08-01T10:33:43;26.10;99.90
11122;DHT22;5615;49.304;10.576;2022-08-01T10:36:10;27.20;99.90
11122;DHT22;5615;49.304;10.576;2022-08-01T10:38:37;27.80;99.90
11122;DHT22;5615;49.304;10.576;2022-08-01T10:41:04;29.20;99.90
11122;DHT22;5615;49.304;10.576;2022-08-01T10:43:32;28.90;97.00
11122;DHT22;5615;49.304;10.576;2022-08-01T10:45:59;27.40;99.80
11122;DHT22;5615;49.304;10.576;2022-08-01T10:48:31;26.10;99.90
11122;DHT22;5615;49.304;10.576;2022-08-01T10:51:01;26.60;99.90
11122;DHT22;5615;49.304;10.576;2022-08-01T10:53:28;26.70;99.90
11122;DHT22;5615;49.304;10.576;2022-08-01T10:55:58;27.70;99.80
11122;DHT22;5615;49.304;10.576;2022-08-01T10:58:27;27.60;99.20
11122;DHT22;5615;49.304;10.576;2022-08-01T11:01:23;28.40;97.40
11122;DHT22;5615;49.304;10.576;2022-08-01T11:03:58;27.60;97.20
11122;DHT22;5615;49.304;10.576;2022-08-01T11:06:37;29.40;94.50
11122;DHT22;5615;49.304;10.576;2022-08-01T11:09:19;29.50;93.20
11122;DHT22;5615;49.304;10.576;2022-08-01T11:11:58;30.50;90.40
11122;DHT22;5615;49.304;10.576;2022-08-01T11:14:25;29.50;90.60
11122;DHT22;5615;49.304;10.576;2022-08-01T11:16:53;30.10;90.20
11122;DHT22;5615;49.304;10.576;2022-08-01T11:19:19;31.50;81.40
11122;DHT22;5615;49.304;10.576;2022-08-01T11:21:59;30.20;78.90
11122;DHT22;5615;49.304;10.576;2022-08-01T11:25:02;29.90;77.50
11122;DHT22;5615;49.304;10.576;2022-08-01T11:27:31;28.90;81.10
11122;DHT22;5615;49.304;10.576;2022-08-01T11:30:22;28.70;85.30
11122;DHT22;5615;49.304;10.576;2022-08-01T11:32:54;29.70;82.40
11122;DHT22;5615;49.304;10.576;2022-08-01T11:35:22;31.00;76.90
11122;DHT22;5615;49.304;10.576;2022-08-01T11:37:51;32.50;72.80
11122;DHT22;5615;49.304;10.576;2022-08-01T11:40:19;32.50;68.10
11122;DHT22;5615;49.304;10.576;2022-08-01T11:42:46;32.10;67.90
11122;DHT22;5615;49.304;10.576;2022-08-01T11:45:13;32.20;67.30
11122;DHT22;5615;49.304;10.576;2022-08-01T11:47:44;33.20;65.20
11122;DHT22;5615;49.304;10.576;2022-08-01T11:50:32;33.20;60.30
11122;DHT22;5615;49.304;10.576;2022-08-01T11:53:00;33.10;59.50
11122;DHT22;5615;49.304;10.576;2022-08-01T11:55:27;33.60;58.20
11122;DHT22;5615;49.304;10.576;2022-08-01T11:57:59;34.00;58.20
11122;DHT22;5615;49.304;10.576;2022-08-01T12:00:27;34.60;55.70
11122;DHT22;5615;49.304;10.576;2022-08-01T12:02:58;33.20;53.40
11122;DHT22;5615;49.304;10.576;2022-08-01T12:05:26;31.70;56.70
11122;DHT22;5615;49.304;10.576;2022-08-01T12:07:56;30.70;58.80
11122;DHT22;5615;49.304;10.576;2022-08-01T12:10:24;30.80;58.50
11122;DHT22;5615;49.304;10.576;2022-08-01T12:12:53;30.70;54.90
11122;DHT22;5615;49.304;10.576;2022-08-01T12:15:21;31.60;55.40
11122;DHT22;5615;49.304;10.576;2022-08-01T12:17:50;32.60;53.30
11122;DHT22;5615;49.304;10.576;2022-08-01T12:20:20;34.80;52.00
11122;DHT22;5615;49.304;10.576;2022-08-01T12:22:47;32.80;51.00
11122;DHT22;5615;49.304;10.576;2022-08-01T12:25:17;31.30;52.60
11122;DHT22;5615;49.304;10.576;2022-08-01T12:27:44;31.30;54.00
11122;DHT22;5615;49.304;10.576;2022-08-01T12:30:13;31.00;54.30
11122;DHT22;5615;49.304;10.576;2022-08-01T12:32:42;33.00;53.90
11122;DHT22;5615;49.304;10.576;2022-08-01T12:35:11;33.00;53.50
11122;DHT22;5615;49.304;10.576;2022-08-01T12:37:40;33.00;51.40
11122;DHT22;5615;49.304;10.576;2022-08-01T12:40:13;32.40;50.80
11122;DHT22;5615;49.304;10.576;2022-08-01T12:42:43;32.40;51.20
11122;DHT22;5615;49.304;10.576;2022-08-01T12:45:12;32.50;50.50
11122;DHT22;5615;49.304;10.576;2022-08-01T12:47:39;30.40;50.50
11122;DHT22;5615;49.304;10.576;2022-08-01T12:50:08;29.80;52.90
11122;DHT22;5615;49.304;10.576;2022-08-01T12:52:37;29.70;53.80
11122;DHT22;5615;49.304;10.576;2022-08-01T12:55:06;29.30;55.20
11122;DHT22;5615;49.304;10.576;2022-08-01T12:57:35;29.20;55.90
11122;DHT22;5615;49.304;10.576;2022-08-01T13:00:11;28.60;57.60
11122;DHT22;5615;49.304;10.576;2022-08-01T13:02:40;28.40;58.00
11122;DHT22;5615;49.304;10.576;2022-08-01T13:05:08;27.90;58.80
11122;DHT22;5615;49.304;10.576;2022-08-01T13:07:37;27.90;59.20
11122;DHT22;5615;49.304;10.576;2022-08-01T13:10:06;27.80;60.50
11122;DHT22;5615;49.304;10.576;2022-08-01T13:12:33;27.60;61.60
11122;DHT22;5615;49.304;10.576;2022-08-01T13:17:43;28.10;62.20
11122;DHT22;5615;49.304;10.576;2022-08-01T13:20:10;28.30;61.50
11122;DHT22;5615;49.304;10.576;2022-08-01T13:22:47;28.30;61.50
11122;DHT22;5615;49.304;10.576;2022-08-01T13:25:14;28.70;60.70
11122;DHT22;5615;49.304;10.576;2022-08-01T13:27:42;29.50;58.30
11122;DHT22;5615;49.304;10.576;2022-08-01T13:30:13;30.40;57.90
11122;DHT22;5615;49.304;10.576;2022-08-01T13:32:40;30.50;56.40
11122;DHT22;5615;49.304;10.576;2022-08-01T13:35:10;31.60;56.50
11122;DHT22;5615;49.304;10.576;2022-08-01T13:37:38;32.80;53.40
11122;DHT22;5615;49.304;10.576;2022-08-01T13:40:06;32.20;53.80
11122;DHT22;5615;49.304;10.576;2022-08-01T13:42:33;32.80;52.70
11122;DHT22;5615;49.304;10.576;2022-08-01T13:45:00;32.20;52.00
11122;DHT22;5615;49.304;10.576;2022-08-01T13:47:27;32.30;52.30
11122;DHT22;5615;49.304;10.576;2022-08-01T13:49:53;32.70;50.10
11122;DHT22;5615;49.304;10.576;2022-08-01T13:52:21;32.60;50.00
11122;DHT22;5615;49.304;10.576;2022-08-01T13:54:48;32.80;50.30
11122;DHT22;5615;49.304;10.576;2022-08-01T13:57:14;32.40;51.10
11122;DHT22;5615;49.304;10.576;2022-08-01T13:59:41;31.40;51.30
11122;DHT22;5615;49.304;10.576;2022-08-01T14:02:08;31.90;52.00
11122;DHT22;5615;49.304;10.576;2022-08-01T14:04:35;32.30;51.10
11122;DHT22;5615;49.304;10.576;2022-08-01T14:07:01;31.60;51.00
11122;DHT22;5615;49.304;10.576;2022-08-01T14:09:29;30.90;50.40
11122;DHT22;5615;49.304;10.576;2022-08-01T14:11:56;30.30;50.70
11122;DHT22;5615;49.304;10.576;2022-08-01T14:14:22;30.90;50.30
11122;DHT22;5615;49.304;10.576;2022-08-01T14:16:49;30.90;50.80
11122;DHT22;5615;49.304;10.576;2022-08-01T14:19:16;31.10;51.10
11122;DHT22;5615;49.304;10.576;2022-08-01T14:21:43;31.90;50.80
11122;DHT22;5615;49.304;10.576;2022-08-01T14:24:10;33.40;49.70
11122;DHT22;5615;49.304;10.576;2022-08-01T14:26:38;34.80;47.10
11122;DHT22;5615;49.304;10.576;2022-08-01T14:29:04;35.40;45.10
11122;DHT22;5615;49.304;10.576;2022-08-01T14:31:31;35.10;44.90
11122;DHT22;5615;49.304;10.576;2022-08-01T14:33:57;35.30;43.20
11122;DHT22;5615;49.304;10.576;2022-08-01T14:36:24;35.90;42.20
11122;DHT22;5615;49.304;10.576;2022-08-01T14:38:51;34.50;42.50
11122;DHT22;5615;49.304;10.576;2022-08-01T14:41:17;34.40;42.50
11122;DHT22;5615;49.304;10.576;2022-08-01T14:43:45;33.90;41.10
11122;DHT22;5615;49.304;10.576;2022-08-01T14:46:12;33.80;41.00
11122;DHT22;5615;49.304;10.576;2022-08-01T14:48:39;34.80;39.90
11122;DHT22;5615;49.304;10.576;2022-08-01T14:51:05;35.90;38.70
11122;DHT22;5615;49.304;10.576;2022-08-01T14:53:33;35.00;39.10
11122;DHT22;5615;49.304;10.576;2022-08-01T14:56:00;34.30;40.50
11122;DHT22;5615;49.304;10.576;2022-08-01T14:58:27;33.00;41.10
11122;DHT22;5615;49.304;10.576;2022-08-01T15:00:55;32.70;41.30
11122;DHT22;5615;49.304;10.576;2022-08-01T15:03:22;35.30;40.40
11122;DHT22;5615;49.304;10.576;2022-08-01T15:05:49;35.30;39.70
11122;DHT22;5615;49.304;10.576;2022-08-01T15:08:15;36.20;38.20
11122;DHT22;5615;49.304;10.576;2022-08-01T15:10:42;35.50;35.20
11122;DHT22;5615;49.304;10.576;2022-08-01T15:13:09;35.00;35.60
11122;DHT22;5615;49.304;10.576;2022-08-01T15:15:35;33.40;37.10
11122;DHT22;5615;49.304;10.576;2022-08-01T15:18:04;31.90;38.40
11122;DHT22;5615;49.304;10.576;2022-08-01T15:20:30;33.10;39.00
11122;DHT22;5615;49.304;10.576;2022-08-01T15:22:58;34.40;38.20
11122;DHT22;5615;49.304;10.576;2022-08-01T15:25:25;36.00;36.70
11122;DHT22;5615;49.304;10.576;2022-08-01T15:27:51;35.60;35.90
11122;DHT22;5615;49.304;10.576;2022-08-01T15:30:18;36.00;35.80
11122;DHT22;5615;49.304;10.576;2022-08-01T15:32:46;34.50;36.10
11122;DHT22;5615;49.304;10.576;2022-08-01T15:35:14;34.70;35.90
11122;DHT22;5615;49.304;10.576;2022-08-01T15:37:41;34.00;36.20
11122;DHT22;5615;49.304;10.576;2022-08-01T15:40:09;34.40;36.50
11122;DHT22;5615;49.304;10.576;2022-08-01T15:42:35;34.00;36.30
11122;DHT22;5615;49.304;10.576;2022-08-01T15:45:03;32.20;37.80